createdAt,value
2019-02-26T00:00:03.331Z,80.60
2019-02-26T00:02:33.785Z,80.30
2019-02-26T00:05:04.309Z,80.60
2019-02-26T00:07:34.779Z,81.60
2019-02-26T00:10:07.123Z,80.90
2019-02-26T00:12:37.581Z,81.10
2019-02-26T00:15:09.884Z,81.10
2019-02-26T00:17:42.604Z,81.10
2019-02-26T00:20:13.282Z,81.10
2019-02-26T00:22:44.723Z,81.20
2019-02-26T00:25:16.172Z,81.30
2019-02-26T00:27:49.324Z,81.60
2019-02-26T00:30:19.410Z,81.80
2019-02-26T00:32:49.829Z,81.90
2019-02-26T00:35:21.241Z,82.30
2019-02-26T00:37:53.459Z,82.20
2019-02-26T00:40:24.677Z,82.30
2019-02-26T00:42:57.566Z,82.40
2019-02-26T00:45:29.466Z,82.30
2019-02-26T00:47:59.567Z,82.20
2019-02-26T00:50:30.921Z,82.00
2019-02-26T00:53:03.952Z,82.10
2019-02-26T00:55:35.660Z,82.20
2019-02-26T00:58:08.443Z,82.40
2019-02-26T01:00:38.806Z,82.50
2019-02-26T01:03:10.994Z,82.60
2019-02-26T01:05:43.109Z,82.40
2019-02-26T01:08:15.746Z,82.10
2019-02-26T01:10:45.859Z,82.40
2019-02-26T01:13:16.332Z,82.60
2019-02-26T01:15:46.779Z,82.30
2019-02-26T01:18:18.030Z,82.10
2019-02-26T01:20:52.254Z,82.60
2019-02-26T01:23:24.252Z,82.70
2019-02-26T01:25:54.708Z,82.90
2019-02-26T01:28:27.080Z,83.30
2019-02-26T01:30:58.401Z,83.60
2019-02-26T01:33:31.945Z,83.70
2019-02-26T01:36:02.671Z,83.80
2019-02-26T01:38:37.370Z,84.10
2019-02-26T01:41:05.543Z,84.10
2019-02-26T01:43:35.957Z,84.00
2019-02-26T01:46:07.796Z,84.10
2019-02-26T01:48:39.506Z,84.40
2019-02-26T01:51:10.668Z,84.40
2019-02-26T01:53:42.269Z,84.60
2019-02-26T01:56:13.250Z,84.80
2019-02-26T01:58:43.675Z,84.80
2019-02-26T02:01:14.835Z,85.00
2019-02-26T02:03:47.029Z,85.40
2019-02-26T02:06:18.405Z,85.30
2019-02-26T02:08:50.480Z,85.00
2019-02-26T02:11:23.873Z,85.60
2019-02-26T02:13:53.144Z,84.80
2019-02-26T02:16:26.208Z,84.50
2019-02-26T02:18:58.187Z,84.70
2019-02-26T02:21:31.092Z,84.70
2019-02-26T02:24:01.168Z,84.70
2019-02-26T02:26:31.627Z,84.80
2019-02-26T02:29:02.022Z,84.70
2019-02-26T02:31:34.865Z,85.10
2019-02-26T02:34:04.600Z,84.70
2019-02-26T02:36:34.992Z,84.40
2019-02-26T02:39:10.370Z,84.50
2019-02-26T02:41:39.382Z,84.60
2019-02-26T02:44:14.485Z,84.70
2019-02-26T02:46:44.567Z,85.00
2019-02-26T02:49:17.799Z,84.90
2019-02-26T02:51:47.694Z,85.40
2019-02-26T02:54:20.895Z,85.40
2019-02-26T02:56:50.483Z,85.40
2019-02-26T02:59:20.883Z,86.00
2019-02-26T03:01:52.694Z,86.20
2019-02-26T03:04:27.866Z,86.20
2019-02-26T03:06:57.987Z,86.00
2019-02-26T03:09:27.754Z,86.30
2019-02-26T03:11:58.173Z,86.60
2019-02-26T03:14:30.772Z,86.60
2019-02-26T03:17:00.780Z,86.70
2019-02-26T03:19:32.621Z,87.50
2019-02-26T03:22:03.404Z,87.90
2019-02-26T03:24:35.945Z,87.80
2019-02-26T03:27:06.398Z,87.80
2019-02-26T03:29:36.819Z,87.50
2019-02-26T03:32:07.259Z,88.20
2019-02-26T03:34:37.703Z,88.10
2019-02-26T03:37:11.074Z,88.00
2019-02-26T03:39:41.707Z,88.10
2019-02-26T03:42:14.310Z,88.20
2019-02-26T03:44:46.932Z,88.30
2019-02-26T03:47:18.835Z,88.30
2019-02-26T03:49:48.673Z,88.50
2019-02-26T03:52:21.372Z,88.60
2019-02-26T03:54:51.872Z,88.40
2019-02-26T03:57:24.671Z,88.80
2019-02-26T03:59:54.670Z,88.80
2019-02-26T04:02:25.085Z,88.80
2019-02-26T04:04:57.252Z,89.40
2019-02-26T04:07:28.331Z,89.40
2019-02-26T04:09:59.816Z,89.50
2019-02-26T04:12:30.297Z,89.60
2019-02-26T04:15:00.707Z,89.60
2019-02-26T04:17:33.513Z,89.70
2019-02-26T04:20:05.752Z,89.80
2019-02-26T04:22:40.211Z,90.00
2019-02-26T04:26:26.209Z,90.10
2019-02-26T04:29:44.083Z,90.10
2019-02-26T04:33:03.984Z,90.20
2019-02-26T04:36:11.736Z,90.50
2019-02-26T04:39:29.779Z,90.60
2019-02-26T04:43:01.858Z,90.80
2019-02-26T04:46:28.822Z,90.90
2019-02-26T04:48:59.192Z,91.00
2019-02-26T04:51:29.622Z,91.00
2019-02-26T04:54:02.000Z,91.10
2019-02-26T04:56:35.942Z,91.20
2019-02-26T04:59:07.066Z,91.40
2019-02-26T05:01:36.523Z,91.50
2019-02-26T05:04:07.025Z,91.40
2019-02-26T05:06:37.467Z,91.40
2019-02-26T05:09:10.605Z,91.40
2019-02-26T05:11:41.051Z,91.30
2019-02-26T05:14:12.287Z,91.20
2019-02-26T05:16:43.650Z,91.30
2019-02-26T05:19:16.398Z,91.40
2019-02-26T05:21:46.204Z,91.40
2019-02-26T05:24:21.283Z,91.50
2019-02-26T05:26:52.121Z,91.50
2019-02-26T05:29:22.548Z,91.60
2019-02-26T05:31:55.438Z,91.60
2019-02-26T05:34:25.924Z,91.70
2019-02-26T05:36:56.664Z,91.90
2019-02-26T05:39:28.797Z,92.10
2019-02-26T05:42:01.283Z,92.20
2019-02-26T05:44:31.618Z,92.30
2019-02-26T05:47:02.092Z,92.40
2019-02-26T05:49:35.320Z,92.10
2019-02-26T05:52:06.946Z,92.40
2019-02-26T05:54:36.894Z,92.10
2019-02-26T05:57:10.806Z,92.10
2019-02-26T05:59:41.840Z,92.10
2019-02-26T06:02:14.057Z,92.20
2019-02-26T06:04:44.580Z,92.20
2019-02-26T06:07:19.254Z,92.20
2019-02-26T06:09:50.886Z,92.30
2019-02-26T06:12:20.364Z,92.30
2019-02-26T06:14:51.466Z,92.30
2019-02-26T06:17:22.472Z,92.30
2019-02-26T06:19:52.929Z,92.30
2019-02-26T06:22:26.425Z,92.20
2019-02-26T06:24:59.527Z,92.80
2019-02-26T06:27:27.699Z,92.30
2019-02-26T06:30:00.270Z,92.60
2019-02-26T06:32:32.823Z,92.40
2019-02-26T06:35:06.151Z,92.50
2019-02-26T06:37:35.926Z,92.40
2019-02-26T06:40:08.540Z,92.30
2019-02-26T06:42:40.348Z,92.20
2019-02-26T06:45:13.895Z,92.10
2019-02-26T06:47:45.650Z,91.90
2019-02-26T06:50:18.823Z,91.90
2019-02-26T06:52:50.703Z,91.80
2019-02-26T06:55:21.551Z,91.70
2019-02-26T06:57:52.779Z,91.30
2019-02-26T07:00:26.714Z,91.30
2019-02-26T07:02:56.373Z,91.20
2019-02-26T07:05:27.646Z,91.00
2019-02-26T07:07:59.593Z,91.00
2019-02-26T07:10:31.414Z,91.00
2019-02-26T07:13:05.193Z,91.00
2019-02-26T07:15:34.969Z,91.00
2019-02-26T07:18:07.684Z,90.90
2019-02-26T07:20:39.989Z,90.80
2019-02-26T07:23:10.601Z,90.70
2019-02-26T07:25:44.008Z,90.70
2019-02-26T07:28:15.325Z,91.00
2019-02-26T07:30:46.927Z,90.90
2019-02-26T07:33:17.526Z,91.00
2019-02-26T07:35:47.927Z,91.20
2019-02-26T07:38:20.734Z,90.60
2019-02-26T07:40:50.536Z,82.40
2019-02-26T07:43:22.603Z,69.20
2019-02-26T07:45:53.192Z,58.90
2019-02-26T07:48:26.197Z,53.70
2019-02-26T07:50:55.806Z,49.10
2019-02-26T07:53:26.192Z,47.00
2019-02-26T07:55:58.673Z,43.80
2019-02-26T07:58:30.907Z,40.10
2019-02-26T08:01:01.055Z,37.50
2019-02-26T08:03:33.003Z,35.60
2019-02-26T08:06:06.524Z,33.90
2019-02-26T08:08:37.363Z,32.70
2019-02-26T08:11:07.816Z,32.00
2019-02-26T08:13:38.253Z,30.60
2019-02-26T08:16:08.704Z,29.80
2019-02-26T08:18:39.155Z,29.30
2019-02-26T08:21:11.131Z,29.20
2019-02-26T08:23:43.505Z,29.30
2019-02-26T08:26:15.534Z,29.00
2019-02-26T08:28:48.127Z,29.30
2019-02-26T08:31:20.502Z,29.50
2019-02-26T08:33:51.802Z,29.90
2019-02-26T08:36:22.620Z,30.80
2019-02-26T08:38:56.422Z,30.50
2019-02-26T08:41:25.305Z,29.50
2019-02-26T08:43:56.499Z,29.30
2019-02-26T08:46:27.913Z,28.30
2019-02-26T08:49:07.874Z,27.80
2019-02-26T08:51:30.571Z,27.60
2019-02-26T08:54:01.044Z,27.90
2019-02-26T08:56:33.789Z,27.80
2019-02-26T08:59:03.711Z,27.30
2019-02-26T09:01:34.168Z,26.80
2019-02-26T09:04:04.602Z,26.70
2019-02-26T09:06:35.173Z,25.80
2019-02-26T09:09:07.515Z,25.30
2019-02-26T09:11:38.835Z,24.70
2019-02-26T09:14:11.524Z,25.00
2019-02-26T09:16:41.563Z,24.30
2019-02-26T09:19:12.111Z,23.90
2019-02-26T09:21:44.778Z,23.10
2019-02-26T09:24:14.765Z,22.80
2019-02-26T09:26:45.177Z,22.80
2019-02-26T09:29:17.393Z,22.80
2019-02-26T09:31:47.777Z,22.90
2019-02-26T09:34:18.325Z,23.10
2019-02-26T09:36:52.717Z,23.20
2019-02-26T09:39:20.999Z,23.70
2019-02-26T09:41:51.453Z,23.20
2019-02-26T09:44:23.853Z,23.30
2019-02-26T09:46:55.364Z,23.50
2019-02-26T09:49:28.095Z,24.20
2019-02-26T09:51:59.054Z,24.00
2019-02-26T09:54:30.562Z,24.00
2019-02-26T09:57:01.099Z,23.80
2019-02-26T09:59:33.539Z,23.90
2019-02-26T10:02:05.892Z,23.60
2019-02-26T10:04:35.838Z,22.80
2019-02-26T10:07:07.388Z,22.20
2019-02-26T10:09:40.879Z,22.50
2019-02-26T10:12:12.784Z,22.60
2019-02-26T10:14:42.773Z,22.90
2019-02-26T10:17:14.199Z,23.10
2019-02-26T10:19:45.420Z,23.20
2019-02-26T10:22:15.863Z,22.30
2019-02-26T10:24:46.331Z,22.50
2019-02-26T10:27:16.748Z,23.00
2019-02-26T10:29:47.610Z,23.00
2019-02-26T10:32:21.359Z,23.00
2019-02-26T10:34:51.858Z,22.90
2019-02-26T10:37:22.348Z,22.90
2019-02-26T10:39:54.937Z,22.70
2019-02-26T10:42:25.021Z,22.20
2019-02-26T10:44:55.489Z,22.20
2019-02-26T10:47:27.436Z,21.60
2019-02-26T10:49:58.554Z,21.80
2019-02-26T10:52:29.649Z,21.50
2019-02-26T10:55:00.230Z,21.90
2019-02-26T10:57:31.093Z,21.40
2019-02-26T11:00:04.833Z,21.20
2019-02-26T11:02:34.557Z,20.30
2019-02-26T11:05:05.846Z,20.00
2019-02-26T11:07:38.045Z,19.20
2019-02-26T11:10:08.894Z,19.00
2019-02-26T11:12:39.823Z,19.10
2019-02-26T11:15:13.412Z,19.00
2019-02-26T11:17:45.660Z,19.30
2019-02-26T11:20:16.015Z,19.50
2019-02-26T11:22:47.206Z,18.90
2019-02-26T11:25:21.442Z,18.90
2019-02-26T11:27:51.043Z,18.90
2019-02-26T11:30:23.840Z,18.90
2019-02-26T11:32:58.666Z,19.00
2019-02-26T11:35:27.376Z,19.10
2019-02-26T11:37:58.355Z,19.00
2019-02-26T11:40:30.682Z,18.70
2019-02-26T11:43:10.912Z,19.40
2019-02-26T11:45:35.161Z,19.10
2019-02-26T11:48:06.668Z,19.10
2019-02-26T11:50:38.046Z,19.20
2019-02-26T11:53:09.876Z,19.10
2019-02-26T11:55:40.794Z,19.70
2019-02-26T11:58:15.377Z,18.70
2019-02-26T12:00:50.380Z,18.80
2019-02-26T12:03:22.790Z,19.10
2019-02-26T12:05:54.170Z,18.90
2019-02-26T12:08:27.360Z,19.10
2019-02-26T12:11:03.355Z,19.60
2019-02-26T12:13:30.083Z,20.20
2019-02-26T12:16:00.833Z,20.60
2019-02-26T12:18:31.297Z,22.10
2019-02-26T12:21:03.520Z,23.40
2019-02-26T12:23:37.004Z,24.80
2019-02-26T12:26:07.117Z,26.30
2019-02-26T12:28:38.580Z,27.40
2019-02-26T12:31:12.638Z,28.60
2019-02-26T12:33:41.948Z,29.60
2019-02-26T12:36:12.375Z,30.40
2019-02-26T12:38:43.069Z,31.30
2019-02-26T12:41:15.951Z,32.00
2019-02-26T12:43:46.549Z,32.70
2019-02-26T12:46:19.196Z,33.40
2019-02-26T12:48:50.342Z,32.60
2019-02-26T12:51:22.627Z,31.50
2019-02-26T12:53:53.170Z,30.40
2019-02-26T12:56:24.341Z,30.10
2019-02-26T12:58:55.787Z,30.30
2019-02-26T13:01:26.819Z,30.80
2019-02-26T13:03:57.268Z,30.50
2019-02-26T13:06:27.753Z,31.40
2019-02-26T13:08:58.207Z,30.50
2019-02-26T13:11:28.729Z,30.80
2019-02-26T13:13:59.269Z,31.40
2019-02-26T13:16:29.737Z,32.00
2019-02-26T13:19:04.516Z,32.30
2019-02-26T13:21:33.916Z,32.20
2019-02-26T13:24:11.669Z,33.00
2019-02-26T13:26:39.079Z,33.30
2019-02-26T13:29:09.429Z,34.00
2019-02-26T13:31:44.815Z,33.60
2019-02-26T13:34:14.164Z,33.80
2019-02-26T13:36:52.187Z,33.40
2019-02-26T13:39:21.833Z,34.20
2019-02-26T13:41:54.346Z,34.30
2019-02-26T13:44:22.517Z,34.40
2019-02-26T13:46:53.166Z,34.90
2019-02-26T13:49:23.687Z,35.20
2019-02-26T13:51:54.355Z,34.90
2019-02-26T13:54:25.008Z,35.00
2019-02-26T13:56:55.501Z,35.20
2019-02-26T13:59:25.970Z,35.60
2019-02-26T14:01:56.404Z,36.00
2019-02-26T14:04:27.150Z,35.90
2019-02-26T14:06:57.645Z,35.90
2019-02-26T14:09:29.712Z,35.90
2019-02-26T14:12:00.234Z,35.70
2019-02-26T14:14:31.094Z,35.90
2019-02-26T14:17:01.970Z,35.90
2019-02-26T14:19:32.687Z,36.30
2019-02-26T14:22:03.142Z,36.70
2019-02-26T14:24:33.578Z,36.70
2019-02-26T14:27:04.471Z,36.90
2019-02-26T14:29:34.993Z,37.10
2019-02-26T14:32:05.419Z,37.10
2019-02-26T14:34:36.157Z,37.20
2019-02-26T14:37:06.947Z,37.30
2019-02-26T14:39:37.479Z,37.60
2019-02-26T14:42:08.001Z,37.50
2019-02-26T14:44:38.637Z,37.50
2019-02-26T14:47:09.245Z,37.30
2019-02-26T14:49:39.708Z,38.00
2019-02-26T14:52:10.250Z,39.20
2019-02-26T14:54:40.733Z,39.40
2019-02-26T14:57:11.553Z,38.50
2019-02-26T14:59:42.015Z,39.90
2019-02-26T15:02:13.159Z,39.20
2019-02-26T15:04:43.651Z,39.70
2019-02-26T15:07:14.308Z,38.90
2019-02-26T15:09:45.123Z,40.80
2019-02-26T15:12:15.787Z,41.40
2019-02-26T15:14:48.715Z,41.60
2019-02-26T15:17:18.603Z,41.80
2019-02-26T15:19:50.455Z,41.60
2019-02-26T15:22:21.418Z,42.10
2019-02-26T15:24:54.379Z,41.90
2019-02-26T15:27:24.884Z,42.50
2019-02-26T15:29:55.372Z,42.60
2019-02-26T15:32:26.765Z,43.20
2019-02-26T15:34:57.423Z,43.30
2019-02-26T15:37:27.918Z,43.50
2019-02-26T15:39:58.786Z,43.80
2019-02-26T15:42:29.269Z,43.90
2019-02-26T15:45:00.272Z,44.10
2019-02-26T15:47:32.568Z,44.40
2019-02-26T15:50:03.490Z,45.20
2019-02-26T15:52:34.015Z,45.70
2019-02-26T15:55:04.706Z,46.00
2019-02-26T15:57:35.201Z,46.70
2019-02-26T16:00:06.722Z,46.90
2019-02-26T16:02:37.710Z,47.50
2019-02-26T16:05:09.369Z,48.00
2019-02-26T16:07:40.048Z,49.00
2019-02-26T16:10:11.425Z,49.00
2019-02-26T16:12:42.023Z,49.10
2019-02-26T16:15:13.478Z,49.60
2019-02-26T16:17:44.030Z,50.20
2019-02-26T16:20:17.687Z,50.10
2019-02-26T16:22:49.256Z,50.80
2019-02-26T16:25:19.777Z,51.40
2019-02-26T16:27:51.674Z,51.50
2019-02-26T16:30:23.278Z,51.60
2019-02-26T16:32:54.962Z,51.80
2019-02-26T16:35:25.960Z,52.20
2019-02-26T16:37:56.499Z,52.50
2019-02-26T16:40:31.396Z,52.40
2019-02-26T16:43:01.936Z,53.00
2019-02-26T16:45:38.289Z,53.40
2019-02-26T16:48:13.458Z,53.60
2019-02-26T16:50:45.582Z,53.60
2019-02-26T16:53:16.631Z,54.40
2019-02-26T16:55:49.060Z,55.30
2019-02-26T16:58:23.163Z,55.10
2019-02-26T17:00:53.723Z,55.50
2019-02-26T17:03:24.298Z,55.70
2019-02-26T17:05:54.771Z,55.30
2019-02-26T17:08:25.328Z,55.70
2019-02-26T17:10:55.830Z,56.30
2019-02-26T17:13:26.570Z,56.80
2019-02-26T17:15:59.542Z,57.20
2019-02-26T17:18:29.442Z,57.20
2019-02-26T17:20:59.932Z,57.30
2019-02-26T17:23:30.475Z,57.90
2019-02-26T17:26:01.177Z,58.10
2019-02-26T17:28:32.365Z,58.60
2019-02-26T17:31:02.896Z,58.40
2019-02-26T17:33:33.349Z,58.50
2019-02-26T17:36:03.965Z,59.50
2019-02-26T17:38:34.675Z,59.60
2019-02-26T17:41:05.855Z,59.50
2019-02-26T17:43:36.259Z,59.70
2019-02-26T17:46:07.840Z,59.90
2019-02-26T17:48:43.468Z,60.20
2019-02-26T17:51:11.135Z,60.00
2019-02-26T17:53:41.644Z,60.30
2019-02-26T17:56:12.502Z,60.30
2019-02-26T17:58:43.965Z,60.30
2019-02-26T18:01:15.028Z,61.60
2019-02-26T18:03:45.530Z,61.30
2019-02-26T18:06:16.947Z,61.80
2019-02-26T18:08:47.423Z,61.50
2019-02-26T18:11:17.914Z,61.40
2019-02-26T18:13:48.496Z,62.40
2019-02-26T18:16:19.111Z,61.80
2019-02-26T18:18:49.594Z,62.80
2019-02-26T18:21:20.140Z,62.60
2019-02-26T18:23:51.945Z,63.00
2019-02-26T18:26:22.696Z,62.90
2019-02-26T18:28:53.328Z,63.20
2019-02-26T18:31:26.687Z,64.10
2019-02-26T18:33:57.488Z,63.90
2019-02-26T18:36:27.995Z,64.20
2019-02-26T18:38:58.564Z,64.10
2019-02-26T18:41:30.543Z,64.80
2019-02-26T18:44:07.449Z,65.10
2019-02-26T18:46:38.183Z,65.20
2019-02-26T18:49:08.675Z,65.50
2019-02-26T18:51:39.403Z,65.40
2019-02-26T18:54:10.477Z,65.40
2019-02-26T18:56:41.131Z,65.40
2019-02-26T18:59:11.687Z,65.80
2019-02-26T19:01:42.657Z,66.10
2019-02-26T19:04:13.953Z,66.20
2019-02-26T19:06:45.823Z,66.10
2019-02-26T19:09:17.969Z,66.20
2019-02-26T19:11:48.557Z,66.50
2019-02-26T19:14:19.094Z,67.10
2019-02-26T19:16:54.146Z,67.40
2019-02-26T19:19:21.855Z,67.70
2019-02-26T19:21:54.087Z,67.80
2019-02-26T19:24:24.960Z,68.20
2019-02-26T19:26:55.733Z,68.90
2019-02-26T19:29:26.385Z,68.90
2019-02-26T19:31:56.917Z,69.30
2019-02-26T19:34:28.823Z,69.40
2019-02-26T19:36:59.591Z,69.40
2019-02-26T19:39:33.574Z,69.30
2019-02-26T19:42:04.493Z,69.40
2019-02-26T19:44:35.879Z,69.50
2019-02-26T19:47:07.025Z,69.60
2019-02-26T19:49:39.675Z,70.00
2019-02-26T19:52:10.452Z,69.80
2019-02-26T19:54:42.046Z,70.00
2019-02-26T19:57:13.256Z,69.80
2019-02-26T19:59:46.949Z,70.10
2019-02-26T20:02:18.052Z,70.00
2019-02-26T20:04:48.650Z,70.30
2019-02-26T20:07:19.249Z,70.90
2019-02-26T20:09:50.645Z,70.80
2019-02-26T20:12:21.216Z,70.70
2019-02-26T20:14:52.304Z,71.20
2019-02-26T20:17:22.937Z,71.30
2019-02-26T20:19:53.653Z,71.60
2019-02-26T20:22:25.432Z,71.90
2019-02-26T20:24:55.972Z,72.30
2019-02-26T20:27:26.585Z,72.40
2019-02-26T20:29:57.071Z,72.50
2019-02-26T20:32:30.907Z,73.30
2019-02-26T20:35:00.366Z,73.00
2019-02-26T20:37:31.312Z,72.70
2019-02-26T20:40:01.804Z,73.00
2019-02-26T20:42:32.494Z,72.90
2019-02-26T20:45:03.014Z,73.30
2019-02-26T20:47:33.695Z,74.10
2019-02-26T20:50:04.375Z,74.20
2019-02-26T20:52:34.859Z,74.60
2019-02-26T20:55:05.982Z,74.40
2019-02-26T20:57:37.796Z,74.80
2019-02-26T21:00:12.647Z,74.70
2019-02-26T21:02:43.526Z,76.10
2019-02-26T21:05:14.058Z,76.20
2019-02-26T21:07:44.523Z,76.60
2019-02-26T21:10:16.201Z,77.00
2019-02-26T21:12:46.680Z,77.00
2019-02-26T21:15:18.849Z,77.30
2019-02-26T21:17:49.328Z,77.40
2019-02-26T21:20:19.837Z,77.50
2019-02-26T21:22:54.546Z,77.50
2019-02-26T21:25:22.599Z,78.00
2019-02-26T21:27:53.098Z,78.30
2019-02-26T21:30:23.622Z,78.30
2019-02-26T21:32:57.849Z,78.70
2019-02-26T21:35:26.367Z,79.70
2019-02-26T21:37:56.918Z,79.10
2019-02-26T21:40:27.376Z,79.10
2019-02-26T21:43:01.674Z,79.70
2019-02-26T21:45:30.198Z,80.10
2019-02-26T21:48:02.846Z,80.00
2019-02-26T21:50:32.865Z,80.20
2019-02-26T21:53:03.472Z,80.50
2019-02-26T21:55:43.914Z,80.60
2019-02-26T21:58:06.140Z,80.20
2019-02-26T22:00:36.781Z,80.10
2019-02-26T22:03:08.750Z,80.10
2019-02-26T22:05:39.225Z,80.10
2019-02-26T22:08:09.770Z,79.40
2019-02-26T22:10:42.797Z,79.10
2019-02-26T22:13:13.511Z,78.20
2019-02-26T22:15:44.570Z,78.00
2019-02-26T22:18:15.761Z,77.30
2019-02-26T22:20:46.354Z,75.90
2019-02-26T22:23:16.868Z,75.40
2019-02-26T22:25:49.765Z,73.50
2019-02-26T22:28:19.556Z,73.10
2019-02-26T22:30:50.051Z,72.70
2019-02-26T22:33:20.506Z,73.00
2019-02-26T22:35:51.004Z,71.00
2019-02-26T22:38:21.579Z,69.60
2019-02-26T22:40:52.222Z,68.20
2019-02-26T22:43:22.981Z,68.10
2019-02-26T22:45:53.634Z,66.00
2019-02-26T22:48:24.300Z,65.60
2019-02-26T22:50:54.760Z,65.60
2019-02-26T22:53:25.224Z,64.60
2019-02-26T22:55:55.742Z,63.40
2019-02-26T22:58:26.203Z,63.30
2019-02-26T23:01:20.108Z,61.10
2019-02-26T23:03:50.684Z,60.70
2019-02-26T23:06:21.712Z,60.00
2019-02-26T23:08:53.185Z,60.20
2019-02-26T23:11:23.876Z,59.10
2019-02-26T23:13:54.701Z,61.00
2019-02-26T23:16:25.575Z,58.80
2019-02-26T23:18:56.895Z,58.00
2019-02-26T23:21:28.215Z,58.60
2019-02-26T23:23:58.819Z,58.60
2019-02-26T23:26:29.637Z,57.70
2019-02-26T23:29:00.171Z,57.70
2019-02-26T23:31:32.960Z,56.80
2019-02-26T23:34:03.322Z,57.30
2019-02-26T23:36:34.155Z,56.40
2019-02-26T23:39:06.747Z,57.40
2019-02-26T23:41:37.158Z,57.30
2019-02-26T23:44:07.753Z,56.40
2019-02-26T23:46:38.637Z,55.70
2019-02-26T23:49:09.031Z,56.20
2019-02-26T23:51:39.565Z,54.70
2019-02-26T23:54:11.948Z,55.30
2019-02-26T23:56:44.323Z,53.90
2019-02-26T23:59:14.917Z,54.20
